createdAt,value
2023-03-26T00:00:50.254Z,8.41
2023-03-26T00:06:09.067Z,8.42
2023-03-26T00:11:12.421Z,8.49
2023-03-26T00:16:17.366Z,8.64
2023-03-26T00:21:21.690Z,8.62
2023-03-26T00:26:23.972Z,8.55
2023-03-26T00:31:25.820Z,8.49
2023-03-26T00:36:27.351Z,8.53
2023-03-26T00:41:31.080Z,8.51
2023-03-26T00:46:32.994Z,8.50
2023-03-26T00:51:35.025Z,8.55
2023-03-26T00:56:36.896Z,8.52
2023-03-26T01:01:38.528Z,8.44
2023-03-26T01:06:42.251Z,8.46
2023-03-26T01:11:44.942Z,8.35
2023-03-26T01:17:22.617Z,8.20
2023-03-26T01:22:26.544Z,8.13
2023-03-26T01:27:56.039Z,8.16
2023-03-26T01:33:45.508Z,8.03
2023-03-26T01:39:21.287Z,8.13
2023-03-26T01:44:50.438Z,7.98
2023-03-26T01:50:25.861Z,8.04
2023-03-26T01:55:56.484Z,8.05
2023-03-26T02:01:08.879Z,7.85
2023-03-26T02:06:30.707Z,7.74
2023-03-26T02:11:35.924Z,7.80
2023-03-26T02:16:37.937Z,7.97
2023-03-26T02:21:39.348Z,7.89
2023-03-26T02:26:41.065Z,7.77
2023-03-26T02:31:46.271Z,7.81
2023-03-26T02:36:47.869Z,7.89
2023-03-26T02:41:49.529Z,7.77
2023-03-26T02:46:51.366Z,7.88
2023-03-26T02:52:21.609Z,8.01
2023-03-26T02:57:25.547Z,7.85
2023-03-26T03:02:54.125Z,7.72
2023-03-26T03:08:05.961Z,7.71
2023-03-26T03:13:10.237Z,7.69
2023-03-26T03:18:11.837Z,7.81
2023-03-26T03:23:13.699Z,7.79
2023-03-26T03:28:18.177Z,7.69
2023-03-26T03:33:20.880Z,7.65
2023-03-26T03:38:22.679Z,7.57
2023-03-26T03:43:27.459Z,7.66
2023-03-26T03:48:56.044Z,7.54
2023-03-26T03:54:05.678Z,7.63
2023-03-26T03:59:21.958Z,7.45
2023-03-26T04:04:24.706Z,7.54
2023-03-26T04:09:34.051Z,7.58
2023-03-26T04:14:43.387Z,7.42
2023-03-26T04:19:53.065Z,7.39
2023-03-26T04:24:54.751Z,7.39
2023-03-26T04:30:03.956Z,7.58
2023-03-26T04:35:06.796Z,7.57
2023-03-26T04:40:13.544Z,7.49
2023-03-26T04:45:30.340Z,7.52
2023-03-26T04:50:31.903Z,7.50
2023-03-26T04:55:44.020Z,7.49
2023-03-26T05:00:54.412Z,7.66
2023-03-26T05:05:56.411Z,7.73
2023-03-26T05:10:58.138Z,7.70
2023-03-26T05:16:06.858Z,7.68
2023-03-26T05:21:12.951Z,7.71
2023-03-26T05:26:15.711Z,7.54
2023-03-26T05:31:23.466Z,7.53
2023-03-26T05:36:29.493Z,7.54
2023-03-26T05:41:41.504Z,7.45
2023-03-26T05:46:43.060Z,7.47
2023-03-26T05:51:53.756Z,7.46
2023-03-26T05:57:15.640Z,7.56
2023-03-26T06:02:35.933Z,7.77
2023-03-26T06:08:14.177Z,7.83
2023-03-26T06:13:23.080Z,7.81
2023-03-26T06:18:26.750Z,7.78
2023-03-26T06:23:55.265Z,7.94
2023-03-26T06:29:15.408Z,8.07
2023-03-26T06:34:28.932Z,8.23
2023-03-26T06:39:31.159Z,8.41
2023-03-26T06:44:46.148Z,8.42
2023-03-26T06:50:06.809Z,8.42
2023-03-26T06:55:27.213Z,8.42
2023-03-26T07:00:48.300Z,8.38
2023-03-26T07:06:10.236Z,8.43
2023-03-26T07:11:30.308Z,8.54
2023-03-26T07:16:54.205Z,8.64
2023-03-26T07:22:20.702Z,8.62
2023-03-26T07:27:59.867Z,9.04
2023-03-26T07:33:49.302Z,9.21
2023-03-26T07:39:49.849Z,9.37
2023-03-26T07:45:36.060Z,9.29
2023-03-26T07:50:55.042Z,9.37
2023-03-26T07:56:26.570Z,9.27
2023-03-26T08:01:38.660Z,9.30
2023-03-26T08:06:46.907Z,9.35
2023-03-26T08:12:09.570Z,9.35
2023-03-26T08:17:30.959Z,9.37
2023-03-26T08:22:41.063Z,9.41
2023-03-26T08:27:51.816Z,9.43
2023-03-26T08:33:05.101Z,9.40
2023-03-26T08:38:06.582Z,9.45
2023-03-26T08:43:55.543Z,9.49
2023-03-26T08:49:03.105Z,9.49
2023-03-26T08:54:22.526Z,9.50
2023-03-26T08:59:57.506Z,9.58
2023-03-26T09:05:26.314Z,9.60
2023-03-26T09:10:36.763Z,9.65
2023-03-26T09:15:59.219Z,9.70
2023-03-26T09:21:13.344Z,9.79
2023-03-26T09:26:26.020Z,9.87
2023-03-26T09:31:57.234Z,9.89
2023-03-26T09:37:13.804Z,10.12
2023-03-26T09:42:53.373Z,10.20
2023-03-26T09:48:21.372Z,10.40
2023-03-26T09:54:32.796Z,10.77
2023-03-26T10:14:17.274Z,11.08
2023-03-26T10:20:04.883Z,11.18
2023-03-26T10:38:31.344Z,11.63
2023-03-26T10:49:41.102Z,11.52
2023-03-26T10:54:54.351Z,11.67
2023-03-26T11:00:42.943Z,12.27
2023-03-26T11:05:47.991Z,12.58
2023-03-26T11:11:05.155Z,12.52
2023-03-26T11:16:39.966Z,12.36
2023-03-26T11:21:53.966Z,12.16
2023-03-26T11:27:36.022Z,12.29
2023-03-26T11:32:47.821Z,12.49
2023-03-26T11:37:55.125Z,12.84
2023-03-26T11:43:02.159Z,12.75
2023-03-26T11:48:23.371Z,12.80
2023-03-26T11:53:31.281Z,13.53
2023-03-26T11:58:51.435Z,13.55
2023-03-26T12:04:15.791Z,13.38
2023-03-26T12:09:18.637Z,13.24
2023-03-26T12:14:26.263Z,12.94
2023-03-26T12:19:39.505Z,13.66
2023-03-26T12:24:41.280Z,12.99
2023-03-26T12:29:43.181Z,12.78
2023-03-26T12:34:44.954Z,12.29
2023-03-26T12:40:10.521Z,13.11
2023-03-26T12:45:12.861Z,13.24
2023-03-26T12:50:15.322Z,12.64
2023-03-26T12:55:28.812Z,12.83
2023-03-26T13:00:50.594Z,13.25
2023-03-26T13:06:13.841Z,12.90
2023-03-26T13:11:30.916Z,13.57
2023-03-26T13:16:56.040Z,12.85
2023-03-26T13:22:24.591Z,12.14
2023-03-26T13:27:36.887Z,12.81
2023-03-26T13:33:14.913Z,12.59
2023-03-26T13:38:35.137Z,13.56
2023-03-26T13:43:46.590Z,13.08
2023-03-26T13:48:54.199Z,12.85
2023-03-26T13:54:21.573Z,13.43
2023-03-26T13:59:31.724Z,13.24
2023-03-26T14:04:43.821Z,13.20
2023-03-26T14:09:51.782Z,12.41
2023-03-26T14:14:57.988Z,12.64
2023-03-26T14:20:23.009Z,12.45
2023-03-26T14:26:10.494Z,13.14
2023-03-26T14:31:30.435Z,12.71
2023-03-26T14:36:52.943Z,11.76
2023-03-26T14:42:15.031Z,11.05
2023-03-26T14:47:21.549Z,11.17
2023-03-26T14:52:36.919Z,11.00
2023-03-26T14:57:53.615Z,10.75
2023-03-26T15:03:29.411Z,10.58
2023-03-26T15:09:10.330Z,10.48
2023-03-26T15:14:26.706Z,10.31
2023-03-26T15:19:58.511Z,10.29
2023-03-26T15:25:18.699Z,9.95
2023-03-26T15:30:38.838Z,10.22
2023-03-26T15:36:09.235Z,10.09
2023-03-26T15:41:22.998Z,9.89
2023-03-26T15:46:43.401Z,9.63
2023-03-26T15:51:55.449Z,9.87
2023-03-26T15:57:19.934Z,9.60
2023-03-26T16:02:40.575Z,9.50
2023-03-26T16:08:05.415Z,9.46
2023-03-26T16:13:22.594Z,9.42
2023-03-26T16:18:34.359Z,9.89
2023-03-26T16:23:53.796Z,9.14
2023-03-26T16:29:16.799Z,9.56
2023-03-26T16:34:28.392Z,9.26
2023-03-26T16:39:40.998Z,9.07
2023-03-26T16:44:47.432Z,8.91
2023-03-26T16:50:26.126Z,8.97
2023-03-26T16:55:43.509Z,9.11
2023-03-26T17:00:59.817Z,9.58
2023-03-26T17:06:20.920Z,9.21
2023-03-26T17:11:36.748Z,9.30
2023-03-26T17:16:48.698Z,9.60
2023-03-26T17:21:50.354Z,9.33
2023-03-26T17:27:05.472Z,9.46
2023-03-26T17:32:11.439Z,10.19
2023-03-26T17:37:18.935Z,9.53
2023-03-26T17:42:32.857Z,9.16
2023-03-26T17:47:48.227Z,9.15
2023-03-26T17:53:06.059Z,9.81
2023-03-26T17:58:29.543Z,9.90
2023-03-26T18:03:41.121Z,10.17
2023-03-26T18:09:17.576Z,9.84
2023-03-26T18:15:01.297Z,10.34
2023-03-26T18:20:09.870Z,10.28
2023-03-26T18:25:31.454Z,10.30
2023-03-26T18:30:44.205Z,10.39
2023-03-26T18:35:51.930Z,10.20
2023-03-26T18:40:55.247Z,10.24
2023-03-26T18:45:57.358Z,10.32
2023-03-26T18:51:06.095Z,10.21
2023-03-26T18:56:28.358Z,10.21
2023-03-26T19:01:33.081Z,9.96
2023-03-26T19:06:39.937Z,10.03
2023-03-26T19:11:41.636Z,9.97
2023-03-26T19:16:47.640Z,10.00
2023-03-26T19:21:50.529Z,9.99
2023-03-26T19:26:52.545Z,9.97
2023-03-26T19:32:04.863Z,9.96
2023-03-26T19:37:24.991Z,9.88
2023-03-26T19:42:43.725Z,9.62
2023-03-26T19:47:48.666Z,9.73
2023-03-26T19:53:16.865Z,9.72
2023-03-26T19:58:19.727Z,9.73
2023-03-26T20:03:27.374Z,9.73
2023-03-26T20:08:29.063Z,9.66
2023-03-26T20:13:31.163Z,9.66
2023-03-26T20:18:33.100Z,9.63
2023-03-26T20:23:34.615Z,9.63
2023-03-26T20:28:42.457Z,9.65
2023-03-26T20:33:51.774Z,8.54
2023-03-26T20:38:53.267Z,8.33
2023-03-26T20:43:54.707Z,8.83
2023-03-26T20:48:57.121Z,9.01
2023-03-26T20:53:58.600Z,8.89
2023-03-26T20:59:10.655Z,8.43
2023-03-26T21:04:13.581Z,8.09
2023-03-26T21:09:17.796Z,8.11
2023-03-26T21:14:24.787Z,8.26
2023-03-26T21:19:26.652Z,8.75
2023-03-26T21:24:40.064Z,8.84
2023-03-26T21:29:41.828Z,8.57
2023-03-26T21:34:55.667Z,8.46
2023-03-26T21:40:01.626Z,8.29
2023-03-26T21:45:03.511Z,8.43
2023-03-26T21:50:07.189Z,8.52
2023-03-26T21:55:10.404Z,8.51
2023-03-26T22:00:23.645Z,8.61
2023-03-26T22:05:40.603Z,8.80
2023-03-26T22:10:42.713Z,8.83
2023-03-26T22:15:46.174Z,8.87
2023-03-26T22:20:49.379Z,8.91
2023-03-26T22:25:51.526Z,8.92
2023-03-26T22:30:53.192Z,8.88
2023-03-26T22:35:56.125Z,8.67
2023-03-26T22:40:58.388Z,8.18
2023-03-26T22:46:00.410Z,8.26
2023-03-26T22:51:08.130Z,8.33
2023-03-26T22:56:11.648Z,8.21
2023-03-26T23:01:20.266Z,7.87
2023-03-26T23:06:21.840Z,7.65
2023-03-26T23:11:23.714Z,7.94
2023-03-26T23:16:26.480Z,8.21
2023-03-26T23:21:28.365Z,8.34
2023-03-26T23:26:40.798Z,8.33
2023-03-26T23:31:49.480Z,8.02
2023-03-26T23:36:52.347Z,8.07
2023-03-26T23:41:54.016Z,7.84
2023-03-26T23:46:57.871Z,8.01
2023-03-26T23:51:59.523Z,8.25
2023-03-26T23:57:04.389Z,8.41
